createdAt,value
2017-04-15T00:01:09.234Z,0
2017-04-15T00:02:19.486Z,0
2017-04-15T00:03:29.745Z,0
2017-04-15T00:04:39.996Z,0
2017-04-15T00:05:49.941Z,0
2017-04-15T00:07:00.198Z,0
2017-04-15T00:08:10.452Z,0
2017-04-15T00:09:20.700Z,0
2017-04-15T00:10:30.954Z,0
2017-04-15T00:11:41.196Z,0
2017-04-15T00:12:51.450Z,0
2017-04-15T00:14:01.744Z,0
2017-04-15T00:15:12.014Z,0
2017-04-15T00:16:22.478Z,0
2017-04-15T00:17:32.724Z,0
2017-04-15T00:18:43.029Z,0
2017-04-15T00:19:53.280Z,0
2017-04-15T00:21:03.541Z,0
2017-04-15T00:22:16.848Z,0
2017-04-15T00:23:26.469Z,0
2017-04-15T00:24:36.720Z,0
2017-04-15T00:25:46.336Z,0
2017-04-15T00:26:56.611Z,0
2017-04-15T00:28:06.870Z,0
2017-04-15T00:29:17.135Z,0
2017-04-15T00:30:27.434Z,0
2017-04-15T00:31:37.683Z,0
2017-04-15T00:32:47.929Z,0
2017-04-15T00:33:58.186Z,0
2017-04-15T00:35:08.116Z,0
2017-04-15T00:36:18.366Z,0
2017-04-15T00:37:28.617Z,0
2017-04-15T00:38:38.870Z,0
2017-04-15T00:39:49.119Z,0
2017-04-15T00:40:59.410Z,0
2017-04-15T00:42:09.356Z,0
2017-04-15T00:43:19.746Z,0
2017-04-15T00:44:30.005Z,0
2017-04-15T00:45:40.262Z,0
2017-04-15T00:46:50.514Z,0
2017-04-15T00:48:00.769Z,0
2017-04-15T00:49:11.042Z,0
2017-04-15T00:50:20.989Z,0
2017-04-15T00:51:31.243Z,0
2017-04-15T00:52:41.504Z,0
2017-04-15T00:53:51.751Z,0
2017-04-15T00:55:01.996Z,0
2017-04-15T00:56:12.249Z,0
2017-04-15T00:57:22.506Z,0
2017-04-15T00:58:32.755Z,0
2017-04-15T00:59:43.015Z,0
2017-04-15T01:00:52.941Z,0
2017-04-15T01:02:03.189Z,0
2017-04-15T01:03:12.813Z,0
2017-04-15T01:04:23.068Z,0
2017-04-15T01:05:33.320Z,0
2017-04-15T01:06:43.253Z,0
2017-04-15T01:07:53.501Z,0
2017-04-15T01:09:03.751Z,0
2017-04-15T01:10:14.255Z,0
2017-04-15T01:11:24.269Z,0
2017-04-15T01:12:34.514Z,0
2017-04-15T01:13:44.764Z,0
2017-04-15T01:14:55.011Z,0
2017-04-15T01:16:05.256Z,0
2017-04-15T01:17:15.501Z,0
2017-04-15T01:18:25.761Z,0
2017-04-15T01:19:36.014Z,0
2017-04-15T01:20:46.262Z,0
2017-04-15T01:21:56.511Z,0
2017-04-15T01:23:06.766Z,0
2017-04-15T01:24:17.019Z,0
2017-04-15T01:25:27.266Z,0
2017-04-15T01:26:37.509Z,0
2017-04-15T01:27:47.752Z,0
2017-04-15T01:28:57.692Z,0
2017-04-15T01:30:07.951Z,0
2017-04-15T01:31:18.206Z,0
2017-04-15T01:32:28.469Z,0
2017-04-15T01:33:38.728Z,0
2017-04-15T01:34:48.990Z,0
2017-04-15T01:35:59.236Z,0
2017-04-15T01:37:09.485Z,0
2017-04-15T01:38:19.732Z,0
2017-04-15T01:39:29.977Z,0
2017-04-15T01:40:40.407Z,0
2017-04-15T01:41:50.659Z,0
2017-04-15T01:43:01.114Z,0
2017-04-15T01:44:11.365Z,0
2017-04-15T01:45:21.639Z,0
2017-04-15T01:46:31.890Z,0
2017-04-15T01:47:42.146Z,0
2017-04-15T01:48:52.392Z,0
2017-04-15T01:50:02.645Z,0
2017-04-15T01:51:12.890Z,0
2017-04-15T01:52:22.831Z,0
2017-04-15T01:53:33.085Z,0
2017-04-15T01:54:43.335Z,0
2017-04-15T01:55:53.583Z,0
2017-04-15T01:57:03.833Z,0
2017-04-15T01:58:14.088Z,0
2017-04-15T01:59:24.339Z,0
2017-04-15T02:00:34.594Z,0
2017-04-15T02:01:44.844Z,0
2017-04-15T02:02:55.115Z,0
2017-04-15T02:04:05.357Z,0
2017-04-15T02:05:15.606Z,0
2017-04-15T02:06:25.874Z,0
2017-04-15T02:07:35.807Z,0
2017-04-15T02:08:46.066Z,0
2017-04-15T02:09:56.315Z,0
2017-04-15T02:11:06.562Z,0
2017-04-15T02:12:16.814Z,0
2017-04-15T02:13:27.216Z,0
2017-04-15T02:14:37.476Z,0
2017-04-15T02:15:47.732Z,0
2017-04-15T02:16:57.977Z,0
2017-04-15T02:18:08.227Z,0
2017-04-15T02:19:18.480Z,0
2017-04-15T02:20:28.732Z,0
2017-04-15T02:21:38.973Z,0
2017-04-15T02:22:49.222Z,0
2017-04-15T02:23:59.484Z,0
2017-04-15T02:25:09.736Z,0
2017-04-15T02:26:19.674Z,0
2017-04-15T02:27:29.920Z,0
2017-04-15T02:28:40.188Z,0
2017-04-15T02:29:50.442Z,0
2017-04-15T02:31:04.293Z,0
2017-04-15T02:32:14.546Z,0
2017-04-15T02:33:24.867Z,0
2017-04-15T02:34:35.115Z,0
2017-04-15T02:35:45.365Z,0
2017-04-15T02:36:55.295Z,0
2017-04-15T02:38:05.550Z,0
2017-04-15T02:39:15.796Z,0
2017-04-15T02:40:26.051Z,0
2017-04-15T02:41:36.298Z,0
2017-04-15T02:42:46.558Z,0
2017-04-15T02:43:56.807Z,0
2017-04-15T02:45:07.055Z,0
2017-04-15T02:46:17.313Z,0
2017-04-15T02:47:27.245Z,0
2017-04-15T02:48:37.500Z,0
2017-04-15T02:49:47.749Z,0
2017-04-15T02:50:57.679Z,0
2017-04-15T02:52:07.923Z,0
2017-04-15T02:53:17.865Z,0
2017-04-15T02:54:28.113Z,0
2017-04-15T02:55:38.357Z,0
2017-04-15T02:56:48.290Z,0
2017-04-15T02:57:58.540Z,0
2017-04-15T02:59:08.786Z,0
2017-04-15T03:00:19.043Z,0
2017-04-15T03:01:29.219Z,0
2017-04-15T03:02:39.714Z,0
2017-04-15T03:03:49.971Z,0
2017-04-15T03:04:59.926Z,0
2017-04-15T03:06:10.182Z,0
2017-04-15T03:07:20.438Z,0
2017-04-15T03:08:30.697Z,0
2017-04-15T03:09:40.947Z,0
2017-04-15T03:10:50.883Z,0
2017-04-15T03:12:01.143Z,0
2017-04-15T03:13:11.391Z,0
2017-04-15T03:14:21.653Z,0
2017-04-15T03:15:31.902Z,0
2017-04-15T03:16:42.147Z,4
2017-04-15T03:17:52.393Z,4
2017-04-15T03:19:02.648Z,0
2017-04-15T03:20:12.897Z,4
2017-04-15T03:21:23.152Z,4
2017-04-15T03:22:33.397Z,4
2017-04-15T03:23:43.645Z,4
2017-04-15T03:24:53.894Z,8
2017-04-15T03:26:04.139Z,4
2017-04-15T03:27:14.386Z,4
2017-04-15T03:28:24.634Z,8
2017-04-15T03:29:34.883Z,8
2017-04-15T03:30:45.096Z,8
2017-04-15T03:31:55.358Z,12
2017-04-15T03:33:05.609Z,12
2017-04-15T03:34:15.866Z,16
2017-04-15T03:35:26.120Z,16
2017-04-15T03:36:36.364Z,20
2017-04-15T03:37:46.621Z,24
2017-04-15T03:38:56.885Z,28
2017-04-15T03:40:07.132Z,32
2017-04-15T03:41:17.378Z,36
2017-04-15T03:42:27.625Z,40
2017-04-15T03:43:37.868Z,44
2017-04-15T03:44:48.118Z,52
2017-04-15T03:45:58.363Z,60
2017-04-15T03:47:08.626Z,72
2017-04-15T03:48:18.567Z,76
2017-04-15T03:49:28.824Z,80
2017-04-15T03:50:39.071Z,88
2017-04-15T03:51:49.324Z,96
2017-04-15T03:52:59.257Z,108
2017-04-15T03:54:09.190Z,120
2017-04-15T03:55:19.438Z,128
2017-04-15T03:56:29.683Z,140
2017-04-15T03:57:39.616Z,156
2017-04-15T03:58:49.863Z,168
2017-04-15T04:00:00.117Z,184
2017-04-15T04:01:10.364Z,200
2017-04-15T04:02:20.613Z,216
2017-04-15T04:03:30.865Z,236
2017-04-15T04:04:41.445Z,260
2017-04-15T04:05:51.886Z,296
2017-04-15T04:07:02.135Z,324
2017-04-15T04:08:12.395Z,360
2017-04-15T04:09:22.647Z,392
2017-04-15T04:10:32.901Z,432
2017-04-15T04:11:43.157Z,456
2017-04-15T04:12:53.406Z,488
2017-04-15T04:14:03.661Z,520
2017-04-15T04:15:13.922Z,552
2017-04-15T04:16:24.170Z,592
2017-04-15T04:17:34.413Z,632
2017-04-15T04:18:44.663Z,672
2017-04-15T04:19:54.913Z,716
2017-04-15T04:21:05.185Z,764
2017-04-15T04:22:15.439Z,804
2017-04-15T04:23:25.691Z,844
2017-04-15T04:24:35.947Z,884
2017-04-15T04:25:46.195Z,924
2017-04-15T04:26:56.451Z,972
2017-04-15T04:28:06.701Z,1032
2017-04-15T04:29:16.945Z,1088
2017-04-15T04:30:27.193Z,1132
2017-04-15T04:31:37.452Z,1196
2017-04-15T04:32:47.723Z,1240
2017-04-15T04:33:57.976Z,1224
2017-04-15T04:35:08.164Z,1284
2017-04-15T04:36:18.406Z,1348
2017-04-15T04:37:29.004Z,1376
2017-04-15T04:38:39.115Z,1396
2017-04-15T04:39:49.062Z,1432
2017-04-15T04:40:59.001Z,1480
2017-04-15T04:42:09.253Z,1528
2017-04-15T04:43:19.512Z,1576
2017-04-15T04:44:29.765Z,1636
2017-04-15T04:45:40.009Z,1692
2017-04-15T04:46:50.257Z,1748
2017-04-15T04:48:00.515Z,1780
2017-04-15T04:49:10.781Z,1808
2017-04-15T04:50:21.054Z,1836
2017-04-15T04:51:31.301Z,1864
2017-04-15T04:52:41.563Z,1892
2017-04-15T04:53:51.814Z,1920
2017-04-15T04:55:01.438Z,1952
2017-04-15T04:56:11.686Z,1984
2017-04-15T04:57:21.937Z,2016
2017-04-15T04:58:32.187Z,2048
2017-04-15T04:59:42.442Z,2096
2017-04-15T05:00:52.377Z,2136
2017-04-15T05:02:02.627Z,2168
2017-04-15T05:03:12.878Z,2196
2017-04-15T05:04:23.147Z,2220
2017-04-15T05:05:33.096Z,2240
2017-04-15T05:06:43.359Z,2228
2017-04-15T05:07:53.610Z,2232
2017-04-15T05:09:03.672Z,2312
2017-04-15T05:10:13.833Z,2304
2017-04-15T05:11:24.077Z,2328
2017-04-15T05:12:34.479Z,2372
2017-04-15T05:13:44.416Z,2384
2017-04-15T05:14:54.681Z,2396
2017-04-15T05:16:04.973Z,2384
2017-04-15T05:17:15.226Z,2412
2017-04-15T05:18:25.163Z,2472
2017-04-15T05:19:35.417Z,2548
2017-04-15T05:20:47.678Z,2516
2017-04-15T05:21:57.928Z,2544
2017-04-15T05:23:08.177Z,2540
2017-04-15T05:24:18.426Z,2548
2017-04-15T05:25:28.698Z,2500
2017-04-15T05:26:38.958Z,2520
2017-04-15T05:27:49.213Z,2540
2017-04-15T05:28:59.460Z,2548
2017-04-15T05:30:09.710Z,2580
2017-04-15T05:31:19.959Z,2660
2017-04-15T05:32:30.209Z,2720
2017-04-15T05:33:40.141Z,2708
2017-04-15T05:34:50.399Z,2700
2017-04-15T05:36:00.645Z,2728
2017-04-15T05:37:10.910Z,2760
2017-04-15T05:38:21.159Z,2800
2017-04-15T05:39:31.403Z,2896
2017-04-15T05:40:41.673Z,2932
2017-04-15T05:41:51.611Z,2900
2017-04-15T05:43:01.855Z,2892
2017-04-15T05:44:11.808Z,2892
2017-04-15T05:45:22.063Z,2984
2017-04-15T05:46:32.320Z,2956
2017-04-15T05:47:42.255Z,2968
2017-04-15T05:48:52.509Z,3012
2017-04-15T05:50:02.806Z,2940
2017-04-15T05:51:12.739Z,3096
2017-04-15T05:52:22.988Z,3128
2017-04-15T05:53:33.392Z,3140
2017-04-15T05:54:43.328Z,3092
2017-04-15T05:55:53.689Z,3180
2017-04-15T05:57:04.095Z,3200
2017-04-15T05:58:14.440Z,3232
2017-04-15T05:59:24.726Z,3252
2017-04-15T06:00:34.988Z,3264
2017-04-15T06:01:45.239Z,3264
2017-04-15T06:02:55.496Z,3272
2017-04-15T06:04:05.748Z,3284
2017-04-15T06:05:16.005Z,3292
2017-04-15T06:06:26.253Z,3288
2017-04-15T06:07:36.499Z,3268
2017-04-15T06:08:46.756Z,3260
2017-04-15T06:09:57.007Z,3272
2017-04-15T06:11:06.951Z,3284
2017-04-15T06:12:16.882Z,3312
2017-04-15T06:13:27.136Z,3324
2017-04-15T06:14:37.386Z,3348
2017-04-15T06:15:47.630Z,3368
2017-04-15T06:16:57.569Z,3372
2017-04-15T06:18:07.825Z,3404
2017-04-15T06:19:18.099Z,3444
2017-04-15T06:20:28.356Z,3472
2017-04-15T06:21:38.601Z,3496
2017-04-15T06:22:48.544Z,3528
2017-04-15T06:23:58.793Z,3560
2017-04-15T06:25:08.424Z,3604
2017-04-15T06:26:18.676Z,3652
2017-04-15T06:27:28.941Z,3708
2017-04-15T06:28:39.194Z,3760
2017-04-15T06:29:49.447Z,3816
2017-04-15T06:30:59.708Z,3880
2017-04-15T06:32:09.646Z,3948
2017-04-15T06:33:19.898Z,4008
2017-04-15T06:34:30.158Z,4072
2017-04-15T06:35:40.412Z,4148
2017-04-15T06:36:50.663Z,4228
2017-04-15T06:38:00.909Z,4272
2017-04-15T06:39:11.161Z,4340
2017-04-15T06:40:21.649Z,4412
2017-04-15T06:41:31.977Z,4444
2017-04-15T06:42:42.377Z,4480
2017-04-15T06:43:52.654Z,4528
2017-04-15T06:45:02.716Z,4608
2017-04-15T06:46:12.984Z,4808
2017-04-15T06:47:23.318Z,4864
2017-04-15T06:48:33.379Z,4708
2017-04-15T06:49:43.722Z,4668
2017-04-15T06:50:53.972Z,4716
2017-04-15T06:52:04.220Z,4880
2017-04-15T06:53:14.486Z,5052
2017-04-15T06:54:24.750Z,5072
2017-04-15T06:55:35.007Z,5036
2017-04-15T06:56:44.945Z,4932
2017-04-15T06:57:55.200Z,4832
2017-04-15T06:59:05.449Z,4768
2017-04-15T07:00:15.696Z,4880
2017-04-15T07:01:25.945Z,4924
2017-04-15T07:02:35.882Z,4996
2017-04-15T07:03:46.150Z,5064
2017-04-15T07:04:56.401Z,4724
2017-04-15T07:06:06.650Z,4572
2017-04-15T07:07:16.586Z,4456
2017-04-15T07:08:26.837Z,4348
2017-04-15T07:09:37.084Z,3900
2017-04-15T07:10:47.342Z,3748
2017-04-15T07:11:57.594Z,3964
2017-04-15T07:13:07.846Z,3888
2017-04-15T07:14:18.104Z,4288
2017-04-15T07:15:28.346Z,4428
2017-04-15T07:16:38.596Z,4332
2017-04-15T07:17:48.859Z,4100
2017-04-15T07:18:59.129Z,4060
2017-04-15T07:20:09.391Z,4204
2017-04-15T07:21:19.670Z,4304
2017-04-15T07:22:29.938Z,4436
2017-04-15T07:23:39.875Z,4676
2017-04-15T07:24:50.125Z,4936
2017-04-15T07:26:00.065Z,5420
2017-04-15T07:27:09.683Z,5432
2017-04-15T07:28:19.934Z,5572
2017-04-15T07:29:30.189Z,5524
2017-04-15T07:30:40.436Z,5528
2017-04-15T07:31:50.683Z,5292
2017-04-15T07:33:00.934Z,5336
2017-04-15T07:34:11.063Z,5408
2017-04-15T07:35:21.089Z,5480
2017-04-15T07:36:31.421Z,5640
2017-04-15T07:37:41.979Z,5860
2017-04-15T07:38:52.305Z,6240
2017-04-15T07:40:02.556Z,6088
2017-04-15T07:41:12.805Z,6732
2017-04-15T07:42:23.054Z,7412
2017-04-15T07:43:33.305Z,7772
2017-04-15T07:44:43.555Z,8308
2017-04-15T07:45:53.489Z,8768
2017-04-15T07:47:03.745Z,8956
2017-04-15T07:48:13.687Z,9192
2017-04-15T07:49:23.634Z,9448
2017-04-15T07:50:33.897Z,9644
2017-04-15T07:51:44.149Z,9096
2017-04-15T07:52:54.402Z,9264
2017-04-15T07:54:04.664Z,9232
2017-04-15T07:55:14.608Z,8804
2017-04-15T07:56:24.860Z,8716
2017-04-15T07:57:35.107Z,8708
2017-04-15T07:58:45.360Z,8876
2017-04-15T07:59:55.621Z,9800
2017-04-15T08:01:05.875Z,10236
2017-04-15T08:02:15.820Z,10584
2017-04-15T08:03:26.074Z,10892
2017-04-15T08:04:36.336Z,11000
2017-04-15T08:05:46.589Z,11016
2017-04-15T08:06:56.846Z,10324
2017-04-15T08:08:07.100Z,9976
2017-04-15T08:09:17.043Z,9952
2017-04-15T08:10:27.303Z,9556
2017-04-15T08:11:37.556Z,9172
2017-04-15T08:12:47.813Z,9252
2017-04-15T08:13:58.073Z,8948
2017-04-15T08:15:08.338Z,8972
2017-04-15T08:16:18.901Z,8948
2017-04-15T08:17:29.157Z,8924
2017-04-15T08:18:39.625Z,9048
2017-04-15T08:19:49.880Z,9196
2017-04-15T08:21:00.129Z,9744
2017-04-15T08:22:10.395Z,10332
2017-04-15T08:23:20.345Z,11180
2017-04-15T08:24:30.603Z,11056
2017-04-15T08:25:40.860Z,11172
2017-04-15T08:26:50.797Z,11416
2017-04-15T08:28:01.055Z,11460
2017-04-15T08:29:11.329Z,11856
2017-04-15T08:30:21.586Z,11988
2017-04-15T08:31:31.840Z,11636
2017-04-15T08:32:42.094Z,10760
2017-04-15T08:33:52.350Z,10196
2017-04-15T08:35:02.610Z,9512
2017-04-15T08:36:12.551Z,9528
2017-04-15T08:37:22.804Z,9164
2017-04-15T08:38:33.058Z,9348
2017-04-15T08:39:43.309Z,10076
2017-04-15T08:40:53.565Z,9812
2017-04-15T08:42:03.813Z,10176
2017-04-15T08:43:14.073Z,10020
2017-04-15T08:44:24.011Z,9588
2017-04-15T08:45:34.265Z,9716
2017-04-15T08:46:44.534Z,9140
2017-04-15T08:47:54.790Z,9256
2017-04-15T08:49:05.051Z,9608
2017-04-15T08:50:15.307Z,9752
2017-04-15T08:51:25.560Z,10148
2017-04-15T08:52:35.813Z,10456
2017-04-15T08:53:46.074Z,10972
2017-04-15T08:54:56.402Z,11704
2017-04-15T08:56:06.818Z,12300
2017-04-15T08:57:17.081Z,12472
2017-04-15T08:58:27.343Z,12500
2017-04-15T08:59:37.796Z,12632
2017-04-15T09:00:48.049Z,12168
2017-04-15T09:01:58.305Z,11348
2017-04-15T09:03:08.570Z,10912
2017-04-15T09:04:18.516Z,10588
2017-04-15T09:05:28.772Z,10088
2017-04-15T09:06:39.035Z,10364
2017-04-15T09:07:49.294Z,10064
2017-04-15T09:08:59.555Z,9848
2017-04-15T09:10:09.810Z,9692
2017-04-15T09:11:20.063Z,9744
2017-04-15T09:12:30.323Z,9604
2017-04-15T09:13:40.280Z,9912
2017-04-15T09:14:50.538Z,10320
2017-04-15T09:16:00.798Z,11320
2017-04-15T09:17:11.054Z,12320
2017-04-15T09:18:21.318Z,12460
2017-04-15T09:19:31.578Z,12264
2017-04-15T09:20:41.843Z,12180
2017-04-15T09:21:52.095Z,12540
2017-04-15T09:23:02.351Z,11684
2017-04-15T09:24:12.294Z,10800
2017-04-15T09:25:22.242Z,10180
2017-04-15T09:26:32.505Z,9984
2017-04-15T09:27:42.757Z,9868
2017-04-15T09:28:53.012Z,10284
2017-04-15T09:30:03.267Z,10620
2017-04-15T09:31:13.538Z,10400
2017-04-15T09:32:23.792Z,9912
2017-04-15T09:33:34.053Z,9236
2017-04-15T09:34:44.372Z,8752
2017-04-15T09:35:54.647Z,8332
2017-04-15T09:37:04.908Z,8408
2017-04-15T09:38:14.858Z,8880
2017-04-15T09:39:25.266Z,9452
2017-04-15T09:40:35.209Z,9820
2017-04-15T09:41:45.467Z,10948
2017-04-15T09:42:55.720Z,11568
2017-04-15T09:44:05.978Z,11672
2017-04-15T09:45:15.939Z,12052
2017-04-15T09:46:26.190Z,12416
2017-04-15T09:47:36.446Z,12748
2017-04-15T09:48:46.711Z,12644
2017-04-15T09:49:56.657Z,12720
2017-04-15T09:51:06.928Z,12972
2017-04-15T09:52:17.181Z,13508
2017-04-15T09:53:27.439Z,13900
2017-04-15T09:54:37.691Z,13380
2017-04-15T09:55:47.635Z,13056
2017-04-15T09:56:57.903Z,13160
2017-04-15T09:58:08.162Z,13444
2017-04-15T09:59:18.420Z,13572
2017-04-15T10:00:28.685Z,13644
2017-04-15T10:01:38.953Z,13432
2017-04-15T10:02:49.214Z,12688
2017-04-15T10:03:59.468Z,11756
2017-04-15T10:05:09.410Z,11132
2017-04-15T10:06:19.667Z,10888
2017-04-15T10:07:29.919Z,10696
2017-04-15T10:08:39.868Z,10408
2017-04-15T10:09:50.130Z,10096
2017-04-15T10:11:00.096Z,9936
2017-04-15T10:12:10.055Z,9912
2017-04-15T10:13:20.657Z,10084
2017-04-15T10:14:31.145Z,10584
2017-04-15T10:15:41.685Z,11256
2017-04-15T10:16:51.937Z,11808
2017-04-15T10:18:02.201Z,12352
2017-04-15T10:19:12.456Z,12684
2017-04-15T10:20:22.711Z,12744
2017-04-15T10:21:32.971Z,12892
2017-04-15T10:22:43.241Z,13452
2017-04-15T10:23:53.494Z,13640
2017-04-15T10:25:03.437Z,13648
2017-04-15T10:26:13.693Z,13468
2017-04-15T10:27:23.953Z,13084
2017-04-15T10:28:34.214Z,12692
2017-04-15T10:29:44.470Z,12452
2017-04-15T10:30:54.735Z,12332
2017-04-15T10:32:04.989Z,12328
2017-04-15T10:33:15.247Z,12336
2017-04-15T10:34:25.516Z,12256
2017-04-15T10:35:35.466Z,12180
2017-04-15T10:36:45.723Z,12112
2017-04-15T10:37:55.992Z,12064
2017-04-15T10:39:05.946Z,12016
2017-04-15T10:40:16.216Z,12000
2017-04-15T10:41:26.480Z,11912
2017-04-15T10:42:36.742Z,11920
2017-04-15T10:43:47.005Z,12032
2017-04-15T10:44:56.952Z,12228
2017-04-15T10:46:07.210Z,12628
2017-04-15T10:47:17.460Z,13120
2017-04-15T10:48:27.724Z,13600
2017-04-15T10:49:37.998Z,13680
2017-04-15T10:50:48.252Z,13700
2017-04-15T10:51:58.509Z,13116
2017-04-15T10:53:08.762Z,12512
2017-04-15T10:54:18.758Z,11944
2017-04-15T10:55:29.222Z,11864
2017-04-15T10:56:39.660Z,11936
2017-04-15T10:57:50.095Z,11924
2017-04-15T10:59:00.362Z,11788
2017-04-15T11:00:10.623Z,11604
2017-04-15T11:01:20.904Z,11460
2017-04-15T11:02:31.164Z,11512
2017-04-15T11:03:41.421Z,11620
2017-04-15T11:04:51.683Z,11700
2017-04-15T11:06:01.648Z,11816
2017-04-15T11:07:11.925Z,11924
2017-04-15T11:08:22.189Z,12064
2017-04-15T11:09:32.460Z,12184
2017-04-15T11:10:42.721Z,12212
2017-04-15T11:11:52.997Z,12176
2017-04-15T11:13:03.262Z,12200
2017-04-15T11:14:13.525Z,12436
2017-04-15T11:15:23.467Z,12780
2017-04-15T11:16:33.723Z,13100
2017-04-15T11:17:43.985Z,13508
2017-04-15T11:18:54.244Z,13948
2017-04-15T11:20:04.504Z,14236
2017-04-15T11:21:14.765Z,14372
2017-04-15T11:22:24.719Z,14488
2017-04-15T11:23:34.768Z,14644
2017-04-15T11:24:45.038Z,14928
2017-04-15T11:25:55.299Z,15328
2017-04-15T11:27:05.563Z,15644
2017-04-15T11:28:15.825Z,15672
2017-04-15T11:29:26.097Z,15512
2017-04-15T11:30:36.372Z,14972
2017-04-15T11:31:46.640Z,14324
2017-04-15T11:32:56.895Z,13844
2017-04-15T11:34:07.210Z,13548
2017-04-15T11:35:17.658Z,13432
2017-04-15T11:36:27.909Z,13304
2017-04-15T11:37:38.186Z,13120
2017-04-15T11:38:48.183Z,13024
2017-04-15T11:39:58.449Z,12840
2017-04-15T11:41:08.394Z,12792
2017-04-15T11:42:18.657Z,12796
2017-04-15T11:43:28.921Z,12744
2017-04-15T11:44:39.185Z,12760
2017-04-15T11:45:49.444Z,12804
2017-04-15T11:46:59.387Z,12868
2017-04-15T11:48:09.340Z,12912
2017-04-15T11:49:19.606Z,12932
2017-04-15T11:50:29.554Z,12924
2017-04-15T11:51:39.816Z,13016
2017-04-15T11:52:50.077Z,13232
2017-04-15T11:54:00.346Z,13540
2017-04-15T11:55:10.612Z,13860
2017-04-15T11:56:20.877Z,14084
2017-04-15T11:57:31.154Z,14056
2017-04-15T11:58:41.412Z,14032
2017-04-15T11:59:51.667Z,14024
2017-04-15T12:01:01.921Z,13704
2017-04-15T12:02:11.864Z,13140
2017-04-15T12:03:22.133Z,12604
2017-04-15T12:04:32.395Z,12356
2017-04-15T12:05:42.653Z,12536
2017-04-15T12:06:52.912Z,12952
2017-04-15T12:08:03.164Z,13452
2017-04-15T12:09:13.101Z,13956
2017-04-15T12:10:23.049Z,14484
2017-04-15T12:11:33.310Z,14700
2017-04-15T12:12:43.576Z,14580
2017-04-15T12:13:53.998Z,14296
2017-04-15T12:15:04.259Z,14020
2017-04-15T12:16:14.382Z,13936
2017-04-15T12:17:23.709Z,13748
2017-04-15T12:18:33.344Z,13596
2017-04-15T12:19:43.799Z,14144
2017-04-15T12:20:54.061Z,15840
2017-04-15T12:22:04.004Z,17504
2017-04-15T12:23:14.274Z,15940
2017-04-15T12:24:24.216Z,16416
2017-04-15T12:25:34.470Z,17056
2017-04-15T12:26:44.415Z,16640
2017-04-15T12:27:54.362Z,15916
2017-04-15T12:29:04.311Z,16008
2017-04-15T12:30:14.254Z,16100
2017-04-15T12:31:24.199Z,16672
2017-04-15T12:32:34.458Z,16960
2017-04-15T12:33:44.722Z,16800
2017-04-15T12:34:54.979Z,16512
2017-04-15T12:36:05.236Z,16704
2017-04-15T12:37:14.236Z,19168
2017-04-15T12:38:23.865Z,17536
2017-04-15T12:39:33.819Z,17536
2017-04-15T12:40:44.084Z,17664
2017-04-15T12:41:54.343Z,17664
2017-04-15T12:43:04.610Z,17408
2017-04-15T12:44:14.882Z,16832
2017-04-15T12:45:25.138Z,15992
2017-04-15T12:46:35.392Z,15596
2017-04-15T12:47:44.711Z,15144
2017-04-15T12:48:54.337Z,14584
2017-04-15T12:50:04.597Z,14112
2017-04-15T12:51:14.857Z,13812
2017-04-15T12:52:25.116Z,13528
2017-04-15T12:53:35.373Z,13268
2017-04-15T12:54:45.633Z,13308
2017-04-15T12:55:55.910Z,13524
2017-04-15T12:57:06.252Z,13760
2017-04-15T12:58:16.702Z,13788
2017-04-15T12:59:26.767Z,13608
2017-04-15T13:00:37.126Z,13524
2017-04-15T13:01:47.380Z,13884
2017-04-15T13:02:57.659Z,14560
2017-04-15T13:04:07.938Z,15180
2017-04-15T13:05:17.885Z,15484
2017-04-15T13:06:28.145Z,15728
2017-04-15T13:07:38.406Z,16736
2017-04-15T13:08:48.375Z,18240
2017-04-15T13:09:58.640Z,23136
2017-04-15T13:11:08.906Z,28992
2017-04-15T13:12:19.183Z,50016
2017-04-15T13:13:28.814Z,35264
2017-04-15T13:14:39.086Z,39744
2017-04-15T13:15:49.345Z,28064
2017-04-15T13:16:59.606Z,24160
2017-04-15T13:18:09.552Z,21728
2017-04-15T13:19:19.817Z,21440
2017-04-15T13:20:29.773Z,22048
2017-04-15T13:21:39.716Z,21952
2017-04-15T13:22:49.982Z,20448
2017-04-15T13:24:00.251Z,19648
2017-04-15T13:25:10.513Z,19008
2017-04-15T13:26:20.774Z,18944
2017-04-15T13:27:31.039Z,19008
2017-04-15T13:28:41.296Z,19776
2017-04-15T13:29:51.558Z,21824
2017-04-15T13:31:01.818Z,21952
2017-04-15T13:32:12.092Z,19680
2017-04-15T13:33:22.078Z,19232
2017-04-15T13:34:32.025Z,18944
2017-04-15T13:35:42.291Z,18592
2017-04-15T13:36:52.547Z,18272
2017-04-15T13:38:02.821Z,18752
2017-04-15T13:39:13.084Z,20352
2017-04-15T13:40:23.194Z,22528
2017-04-15T13:41:33.532Z,24032
2017-04-15T13:42:43.599Z,25920
2017-04-15T13:43:53.869Z,28256
2017-04-15T13:45:04.139Z,32832
2017-04-15T13:46:14.402Z,31168
2017-04-15T13:47:24.659Z,39296
2017-04-15T13:48:34.614Z,63424
2017-04-15T13:49:44.879Z,36320
2017-04-15T13:50:55.142Z,26368
2017-04-15T13:52:05.410Z,22592
2017-04-15T13:53:15.676Z,20608
2017-04-15T13:54:25.970Z,21312
2017-04-15T13:55:36.219Z,22496
2017-04-15T13:56:46.174Z,31904
2017-04-15T13:57:56.441Z,77952
2017-04-15T13:59:06.707Z,65920
2017-04-15T14:00:16.658Z,25504
2017-04-15T14:01:26.292Z,23264
2017-04-15T14:02:36.557Z,57920
2017-04-15T14:03:46.831Z,76512
2017-04-15T14:04:57.096Z,77536
2017-04-15T14:06:07.369Z,74944
2017-04-15T14:07:17.321Z,69088
2017-04-15T14:08:27.588Z,75680
2017-04-15T14:09:37.856Z,74048
2017-04-15T14:10:47.804Z,59296
2017-04-15T14:11:58.068Z,81536
2017-04-15T14:13:08.338Z,56160
2017-04-15T14:14:18.620Z,80512
2017-04-15T14:15:28.888Z,81952
2017-04-15T14:16:39.164Z,77856
2017-04-15T14:17:49.124Z,75072
2017-04-15T14:18:59.396Z,75328
2017-04-15T14:20:09.687Z,74880
2017-04-15T14:21:19.966Z,58432
2017-04-15T14:22:30.241Z,47168
2017-04-15T14:23:40.509Z,30336
2017-04-15T14:24:50.781Z,44256
2017-04-15T14:26:01.062Z,57664
2017-04-15T14:27:11.330Z,46048
2017-04-15T14:28:21.605Z,73920
2017-04-15T14:29:31.876Z,75520
2017-04-15T14:30:41.827Z,74080
2017-04-15T14:31:51.790Z,64640
2017-04-15T14:33:02.066Z,72960
2017-04-15T14:34:12.031Z,68160
2017-04-15T14:35:22.300Z,54560
2017-04-15T14:36:32.580Z,73248
2017-04-15T14:37:42.852Z,55648
2017-04-15T14:38:53.132Z,61792
2017-04-15T14:40:03.403Z,70080
2017-04-15T14:41:13.378Z,53088
2017-04-15T14:42:23.657Z,73856
2017-04-15T14:43:33.975Z,71072
2017-04-15T14:44:43.953Z,67936
2017-04-15T14:45:54.230Z,67008
2017-04-15T14:47:04.498Z,68128
2017-04-15T14:48:14.460Z,67968
2017-04-15T14:49:24.729Z,68896
2017-04-15T14:50:34.740Z,67776
2017-04-15T14:51:45.005Z,66720
2017-04-15T14:52:55.288Z,67296
2017-04-15T14:54:05.785Z,65312
2017-04-15T14:55:16.062Z,64064
2017-04-15T14:56:26.022Z,65664
2017-04-15T14:57:36.295Z,63456
2017-04-15T14:58:46.280Z,63296
2017-04-15T14:59:56.243Z,62112
2017-04-15T15:01:06.528Z,61696
2017-04-15T15:02:16.822Z,64256
2017-04-15T15:03:26.787Z,62016
2017-04-15T15:04:36.749Z,61632
2017-04-15T15:05:46.394Z,60704
2017-04-15T15:06:56.675Z,57376
2017-04-15T15:08:06.948Z,59232
2017-04-15T15:09:17.231Z,59072
2017-04-15T15:10:27.507Z,58240
2017-04-15T15:11:39.940Z,59808
2017-04-15T15:12:49.902Z,57472
2017-04-15T15:14:00.178Z,44256
2017-04-15T15:15:10.452Z,56032
2017-04-15T15:16:20.737Z,31104
2017-04-15T15:17:31.005Z,24096
2017-04-15T15:18:41.277Z,18880
2017-04-15T15:19:51.557Z,56192
2017-04-15T15:21:01.825Z,43296
2017-04-15T15:22:12.101Z,59904
2017-04-15T15:23:22.380Z,31776
2017-04-15T15:24:32.850Z,31872
2017-04-15T15:25:43.365Z,26048
2017-04-15T15:26:53.636Z,27520
2017-04-15T15:28:03.907Z,22048
2017-04-15T15:29:14.180Z,36800
2017-04-15T15:30:24.457Z,51584
2017-04-15T15:31:34.413Z,43200
2017-04-15T15:32:44.683Z,44416
2017-04-15T15:33:54.959Z,44064
2017-04-15T15:35:04.924Z,40064
2017-04-15T15:36:15.189Z,37120
2017-04-15T15:37:25.457Z,34336
2017-04-15T15:38:35.739Z,24352
2017-04-15T15:39:46.015Z,19104
2017-04-15T15:40:56.286Z,14968
2017-04-15T15:42:06.549Z,14060
2017-04-15T15:43:16.510Z,13952
2017-04-15T15:44:26.794Z,16896